arxmliv
arxmliv build tool
 
KWARC group
LaTeXML
About
   
 

Detailed info

Back to Homepage

List of missing_macros

No. Date Filename num_warningnum_errornum_xmargok_xmargnum_xmathok_xmathMissing macros
100401 2013-03-11 21:45:30 /0711/0711.1295 370000[{keywords}]; 1 missing file[IEEEtran.cls].
100402 2013-03-11 21:45:20 /0711/0711.1286 920000[\today, \date].
100403 2013-03-11 21:44:54 /0711/0711.1277 2060000[\endxy, {comment}, \dir, \xy, \xypolygon]; 1 missing file[xy.sty].
100404 2013-03-11 21:44:46 /0711/0711.1281 110000[\citeauthoryear].
100405 2013-03-11 21:44:45 /0711/0711.1272 1410000[\theappendix].
100406 2013-03-11 21:44:35 /0711/0711.1276 720000[\oiint, \psfrag].
100407 2013-03-11 21:44:30 /0711/0711.1269 730000[\authorblockN, \authorrefmark, \authorblockA]; 1 missing file[IEEEtrantuhh.cls].
100408 2013-03-11 21:44:08 /0711/0711.1273 730000[\authorblockN, \authorrefmark, \authorblockA]; 1 missing file[IEEEtran.cls].
100409 2013-03-11 21:43:53 /0711/0711.1260 110000[{comment}].
100410 2013-03-11 21:43:46 /0711/0711.1258 12520000[\title, \author].
100411 2013-03-11 21:43:18 /0711/0711.1257 340000[Align]; 2 missing files[equation.sty, enumerat.sty].
100412 2013-03-11 21:43:08 /0711/0711.1256 12140000[\abstcol, \pacs, \institute, \includegraphics, \published, \titlerunning, \mail, \authorrunning, {acknowledgement}, \received]; 1 missing file[wiley2sp.cls].
100413 2013-03-11 21:43:07 /0711/0711.1230 18630000[\tciLaplace, \geometry, \tsum].
100414 2013-03-11 21:43:03 /0711/0711.1239 15100000[\ShortTitle, \gtrsim, \email, {rotate}, \FullConference, \psfrag, \speaker]; 1 missing file[PoS.cls].
100415 2013-03-11 21:43:03 /0711/0711.1240 3510000[\fancyplain].
100416 2013-03-11 21:42:56 /0711/0711.1238 4560000[\Text, \ArrowLine, \DashCArc, \Photon, \PhotonArc, \DashLine].
100417 2013-03-11 21:42:52 /0711/0711.1242 310000[\theappendix].
100418 2013-03-11 21:42:22 /0711/0711.1243 030000[\extrasenglish, \dateenglish, \captionsenglish].
100419 2013-03-11 21:42:02 /0711/0711.1231 5260000[\RRIkeywords, {algorithm}, \RRIprojet, \RRInumber, \RRIauthor, \SetLine, \RRItheme, \RRNo, \RRItitre, \RRItitle, \RRIthead, \RRIresume, \THNum, \RRIdate, \RRIabstract, \includegraphics, \Begin, \RRIahead, \RRImotscles, \RRImaketitle]; 2 missing files[lip
100420 2013-03-11 21:41:44 /0711/0711.1214 10110000[\resetfootnoterule, \FirstPageHead, \Address, \Date, \Author, \JNMPnumberwithin, \Name, \copyrightnote].
100421 2013-03-11 21:41:39 /0711/0711.0974 8490000[\setcaptionwidth, \psfrag]; 2 missing files[needspace.sty, pslatex.sty].
100422 2013-03-11 21:41:30 /0711/0711.1202 28290000[\cyrs, \cyrd, \cyrn, \cyrshch, \cyre, \cyrt, \cyrishrt, \cyrya, \cyrl, \CYRS, \CYRV, \CYRR, \cyrery, \cyrerev, \cyrv, \cyri, \cyryu, \CYRA, \cyrk, \cyrr, \cyrc, \cyro, \CYRO, \cyrz, \cyru, \cyra, \cyrzh, \cyrp]; 1 missing file[T2Aenc.def].
100423 2013-03-11 21:41:20 /0711/0711.1203 030000[Align, \xymatrix, \ar].
100424 2013-03-11 21:40:50 /0711/0711.1212 1150000[\Issue, \accepted, \Month, \institute, \Yearsubmission, \Volume, \Yearpublication, \publonline, \DOI, \Pagespan, \email, \titlerunning, \acknowledgements, \authorrunning, \received].
100425 2013-03-11 21:40:32 /0711/0711.1210 120000[\Bbb, \newtheorem].
100426 2013-03-11 21:40:08 /0711/0711.1194 970000[\address, \catchline, {history}, \psfig, \revised, \text, \received]; 1 missing file[BNM-zoubs.cls].
100427 2013-03-11 21:39:50 /0711/0711.1198 010000[\ead].
100428 2013-03-11 21:39:48 /0711/0711.1161 2740000[{keywords}, \PARstart, \appendices, {proof}]; 1 missing file[IEEEtran.cls].
100429 2013-03-11 21:39:48 /0711/0711.1199 910000[\keywords].
100430 2013-03-11 21:39:46 /0711/0711.1183 1100000[\ehad, \emu, \nm, \ptmiss, \nel, \neb, \enu, \mutotau, \nmb]; 1 missing file[mycommands.sty].
100431 2013-03-11 21:39:44 /0711/0711.1201 33280000[\arcmin, \apj, \atom, \timeform, \citep, \emissiontype, \aaps, \pasj, \apjl, \nat, \aap, \procspie, \Accepted, \email, \pasp, \arcsec, \KeyWords, \aj, \altaffilmark, \Received, \apjs, \mnras, \FigureFile, \farcm, \altaffiltext, \farcs, \SetRunningHead];
100432 2013-03-11 21:39:26 /0711/0711.1178 8830000[\Vertex, \psfrag, \CArc].
100433 2013-03-11 21:39:23 /0711/0711.1187 5180000[\inst, \accepted, \Month, \degr, \apjl, \publonline, \aas, \email, \fnmsep, \received, \Issue, \Yearsubmission, \institute, \Yearpublication, \Volume, \aaa, \Pagespan, \acknowledgements].
100434 2013-03-11 21:39:04 /0711/0711.1170 290000[\PACSes, \ETC, \BY, \IN, \atque, \acknowledgments, \PACSit, \instlist, \from].
100435 2013-03-11 21:38:55 /0711/0711.1176 2740000[\ShortTitle, \email, \FullConference, \speaker]; 1 missing file[PoS.cls].
100436 2013-03-11 21:38:47 /0711/0711.1143 9410000[\lambdall].
100437 2013-03-11 21:38:46 /0711/0711.1163 1240000[Align, \pacs, {ruledtabular}]; 1 missing file[apjfonts.sty].
100438 2013-03-11 21:38:45 /0711/0711.1175 250000[\includegraphics, \ShortTitle, \email, \FullConference, \speaker]; 1 missing file[PoS.cls].
100439 2013-03-11 21:38:41 /0711/0711.1150 79270000[\citen].
100440 2013-03-11 21:38:32 /0711/0711.1134 102190000[\arxivreference, \surname, \arxivpassword, \xymatrix, \R, \C, \urladdr, Align, \address, \keyword, \email, \Z, \agtart, \givenname, {proof}, \ar]; 2 missing files[xy.sty, gtpart.cls].
100441 2013-03-11 21:38:21 /0711/0711.1167 310000[\theappendix].
100442 2013-03-11 21:38:08 /0711/0711.1127 3610000[\slashed].
100443 2013-03-11 21:38:01 /0711/0711.1149 010000[Align].
100444 2013-03-11 21:37:57 /0711/0711.1147 1210000[\inplus].
100445 2013-03-11 21:37:48 /0711/0711.1140 1840000[Align, \xymatrix, \ar]; 1 missing file[xy.sty].
100446 2013-03-11 21:37:45 /0711/0711.1141 160000[{acknowledgments}, \affil, \footcomment, \conflictofinterest, {article}, \keywords]; 1 missing file[pnastwo.cls].
100447 2013-03-11 21:37:21 /0711/0711.1108 5010000[\psfrag].
100448 2013-03-11 21:37:08 /0711/0711.1133 1850000[\square, \citep, \nologohead]; 2 missing files[SGpreprint.sty, lastpage.sty].
100449 2013-03-11 21:37:04 /0711/0711.1116 34110000[\DashArrowLine, \dateenglish, \extrasenglish, \ArrowLine, \Text, \SetWidth, \SetScale, \DashLine, \geometry, \Gluon, \captionsenglish].
100450 2013-03-11 21:36:49 /0711/0711.1121 5840000[\ShortTitle, \email, \FullConference, \speaker]; 1 missing file[PoS.cls].
100451 2013-03-11 21:36:47 /0711/0711.1117 1220000[\blacktriangle]; 1 missing file[qsymbols.sty].
100452 2013-03-11 21:36:34 /0711/0711.1082 68150000[\kwd, \snm, \@@atop, \affiliation, {keyword}, \thankstext, \fnms, \runtitle, \theappendix, {aug}, \address, \thanksref, \runauthor, {frontmatter}, \ead]; 1 missing file[imsart.cls].
100453 2013-03-11 21:36:26 /0711/0711.1124 010000[\braket].
100454 2013-03-11 21:36:18 /0711/0711.0952 8920000[\mathds, \citen].
100455 2013-03-11 21:35:53 /0711/0711.1115 2670000[\epubtkKeywords, \epubtkImage, \epubtkAuthorData, \epubtkUpdateA, \epubtkUpdate]; 2 missing files[epubtk.sty, update.sty].
100456 2013-03-11 21:35:23 /0711/0711.1093 3110000[\theappendix].
100457 2013-03-11 21:35:15 /0711/0711.1097 110000[\a].
100458 2013-03-11 21:34:50 /0711/0711.1041 32220000[{lemma}, {theorem}, \pdfbookmark, \LastPageEnding, \Classification, \ArticleDates, {remark}, \AuthorNameForHeading, \URLaddress, {proposition}, \Abstract, \ArticleName, \ShortArticleName, \FirstPageHeading, \Address, \Author, {definition}, \Email, \Keywo
100459 2013-03-11 21:34:26 /0711/0711.1089 270000[\editors, \affiliation, \jname, \pagerange, \keywords, \volume, \pubyear]; 1 missing file[iaus.cls].
100460 2013-03-11 21:33:57 /0711/0711.1076 510000[\citeauthoryear].
100461 2013-03-11 21:33:40 /0711/0711.1066 2680000[\kword, \abst, \inst, \recdate, \mib, \citen].
100462 2013-03-11 21:32:47 /0711/0711.1071 1380000[\sodauthor, \rauthor, \address, \sodtitle, \dates, \lat, \PACS, \rtitle].
100463 2013-03-11 21:32:46 /0711/0711.1035 26420000[{psmatrix}, {cor}, {prop}, {example}, Align, {remark}, {lem}, {thm}]; 1 missing file[myheader.sty].
100464 2013-03-11 21:32:42 /0711/0711.1053 030000[\extrasenglish, \dateenglish, \captionsenglish].
100465 2013-03-11 21:32:04 /0711/0711.1047 1310000[\makesm@sh].
100466 2013-03-11 21:32:02 /0711/0711.1023 3950000[Align, \xymatrix, \newdir, \ar]; 1 missing file[xy.sty].
100467 2013-03-11 21:31:46 /0711/0711.1044 690000[\botrule, \psfig, \bodymatter, \toprule, \tbl, \keywords]; 1 missing file[ws.sty].
100468 2013-03-11 21:31:42 /0711/0711.1036 6410000[\boldsymbol].
100469 2013-03-11 21:31:33 /0711/0711.1049 530000[\layoutstyle, \classification]; 1 missing file[{aipcheck}].
100470 2013-03-11 21:31:27 /0711/0711.1031 1850000[\psfrag].
100471 2013-03-11 21:31:18 /0711/0711.1017 7440000[\eqcolon, \coloneq, \R, \C].
100472 2013-03-11 21:31:15 /0711/0711.1011 4810000[\mathinner].
100473 2013-03-11 21:31:09 /0711/0711.1016 315660000[{prop}, {lemma}, {proof*}, {theorem}, \xymatrix, {keyword}, \normalshape, {definition}, Align, \thanksref, {frontmatter}, {proof}, \ar, {proposition}]; 2 missing files[xy.sty, entcsmacro.sty].
100474 2013-03-11 21:30:59 /0711/0711.1040 2320000[\epsfbox]; 1 missing file[epsfig].
100475 2013-03-11 21:30:52 /0711/0711.1038 180000[\textipa, \email, \inst, \titlerunning, \institute, \authorrunning, \mainmatter]; 2 missing files[taima.cls, tipa.sty].
100476 2013-03-11 21:30:42 /0711/0711.1014 1550000[Align, \trianglelefteqslant, \xymatrix, \ar]; 1 missing file[xy.sty].
100477 2013-03-11 21:30:10 /0711/0711.1027 570000[\includegraphics, \shortauthors, \email, \shorttitle, \afiliations, \authors]; 1 missing file[icrctc07.sty].
100478 2013-03-11 21:29:52 /0711/0711.1008 12290000[\rlvec, \clvec, \lfill, \larc, \lvec, \lcir, \linewd, \lpatt, \ravec, \arrowheadtype, \arrowheadsize, \textref, \rmove, \drawdim, \setunitscale, {texdraw}, \setgray, \avec, \fcir, \htext, \move].
100479 2013-03-11 21:29:49 /0711/0711.0987 115130000[\bethn, \bepf, \belen, \becon, \encon, {rem}, \enthn, \enpf, \geometry, \enlen, \enth]; 1 missing file[mytheo.sty].
100480 2013-03-11 21:29:45 /0711/0711.1020 010000[\theappendix].
100481 2013-03-11 21:29:31 /0711/0711.1002 030000[{theacknowledgments}, \layoutstyle, \classification].
100482 2013-03-11 21:29:23 /0711/0711.0993 5010000[\FloatBarrier].
100483 2013-03-11 21:28:48 /0711/0711.0991 240000[\psfig, \bodymatter, \keywords]; 1 missing file[ws.sty].
100484 2013-03-11 21:28:43 /0711/0711.0980 410000[\smaller].
100485 2013-03-11 21:28:41 /0711/0711.0965 3410000[\geometry].
100486 2013-03-11 21:28:39 /0711/0711.0996 2650000[\address, \runningheads, {Abstract}, {start}]; 1 missing file[lt7-proc.cls].
100487 2013-03-11 21:28:38 /0711/0711.0986 44110000[\bethn, \bepf, \belen, \becon, \encon, {rem}, \enthn, \enpf, \geometry, \enlen]; 1 missing file[mytheo.sty].
100488 2013-03-11 21:28:18 /0711/0711.0984 080000[\affil, \apj, \aj, \acknowledgements, \ga, \nat, \aap]; 1 missing file[asp2006.sty].
100489 2013-03-11 21:28:15 /0711/0711.0943 4810000[\psfrag].
100490 2013-03-11 21:27:50 /0711/0711.0964 11070000[Align, \parconference, \dir, \xymatrix, \newdir, \ar]; 1 missing file[oldgerm.sty].
100491 2013-03-11 21:27:47 /0711/0711.0644 120000[\PACS]; 1 missing file[size11.clo.sty].
100492 2013-03-11 21:26:51 /0711/0711.0950 610000[{frontmatter}].
100493 2013-03-11 21:26:39 /0711/0711.0958 3610000[\theappendix].
100494 2013-03-11 21:26:38 /0711/0711.0873 6230000[\psfrag].
100495 2013-03-11 21:26:15 /0711/0711.0968 210000[\psfrag].
100496 2013-03-11 21:25:57 /0711/0711.0926 4110000[\text].
100497 2013-03-11 21:25:47 /0711/0711.0954 020000[\layoutstyle, \classification].
100498 2013-03-11 21:25:46 /0711/0711.0928 1230000[\drawline, \ellipse, \dashline].
100499 2013-03-11 21:25:37 /0711/0711.0949 010000[\theappendix].
100500 2013-03-11 21:25:35 /0711/0711.0944 16160000[{xy}, {lemma}, {theorem}, \xymatrix, {definition}, Align, \Z, {corollary}, {remark}, {proposition}, \ar]; 2 missing files[hannah.sty, xy.sty].
100501 2013-03-11 21:25:04 /0711/0711.0929 1410000[\ack].
100502 2013-03-11 21:25:00 /0711/0711.0865 210000[\htmladdnormallink].
100503 2013-03-11 21:24:57 /0711/0711.0927 010000[\geometry].
100504 2013-03-11 21:24:53 /0711/0711.0924 1350000[\address, \email, \mathbb, \theoremstyle, {proof}]; 1 missing file[mrlart3.cls].
100505 2013-03-11 21:24:44 /0711/0711.0936 010000[\ead].
100506 2013-03-11 21:24:40 /0711/0711.0935 110000[\ead].
100507 2013-03-11 21:24:39 /0711/0711.0919 4450000[\co, \volumenumber, \issuenumber, \accepted, \doi, \subject, \Zbl, \address, \keyword, \papernumber, \Com, {gather*}, \givenname, \makeop, \received, \gtart, \editor, \proposed, \seconded, \published, \startpage, {asciiabstract}, \varnothing, \revised, \
100508 2013-03-11 21:24:33 /0711/0711.0938 010000[\ead].
100509 2013-03-11 21:24:32 /0711/0711.0876 163180000[\startlocaldefs, \affiliation, \runtitle, \volume, \address, \corref, \pubyear, \kwd, \snm, \fnms, {keyword}, \endlocaldefs, {aug}, \issue, \runauthor, \printead, {frontmatter}, \ead]; 1 missing file[imsart.cls].
100510 2013-03-11 21:24:16 /0711/0711.0895 4820000[\xyoption]; 1 missing file[xy.sty].
100511 2013-03-11 21:24:04 /0711/0711.0904 030000[\extrasenglish, \dateenglish, \captionsenglish].
100512 2013-03-11 21:23:58 /0711/0711.0896 740000[Align, \xymatrix, \ar]; 1 missing file[xy.sty].
100513 2013-03-11 21:21:36 /0711/0711.0892 740000[{keywords}, \IEEEauthorblockA, \IEEEauthorblockN, {IEEEproof}]; 1 missing file[IEEEtran.cls].
100514 2013-03-11 21:21:21 /0711/0711.0874 410000[\@end@institute].
100515 2013-03-11 21:21:11 /0711/0711.0880 6050000[\epsfbox, \relabel, \endrelabelbox, \relabelbox]; 1 missing file[rlepsf.sty].
100516 2013-03-11 21:20:55 /0711/0711.0792 78240000[\theappendix, {numcases}].
100517 2013-03-11 21:20:23 /0711/0711.0864 060000[\affil, \plotone, \acknowledgements, \plotfiddle, \plottwo]; 1 missing file[asp2006.sty].
100518 2013-03-11 21:20:13 /0711/0711.0870 1650000[\opentriangle, \ack, \opendiamond, \opentriangledown, \ead].
100519 2013-03-11 21:20:02 /0711/0711.0860 7410000[\smaller].
100520 2013-03-11 21:19:45 /0711/0711.0856 120000[\upDelta]; 1 missing file[fixmath.sty].
100521 2013-03-11 21:19:23 /0711/0711.0706 0340000[\mr, {thereferences}, \br, \ead].
100522 2013-03-11 21:19:14 /0711/0711.0844 120000[\inst, \institute]; 1 missing file[mpe_report.cls].
100523 2013-03-11 21:19:01 /0711/0711.0833 020000[{sidewaystable}].
100524 2013-03-11 21:19:00 /0711/0711.0852 040000[\psfrag].
100525 2013-03-11 21:18:46 /0711/0711.0781 4650000[\relabel, \endrelabelbox, \relabelbox]; 2 missing files[pictexwd.sty, rlepsf.sty].
100526 2013-03-11 21:18:12 /0711/0711.0827 1230000[\src, \xmm]; 1 missing file[aas_macros.sty].
100527 2013-03-11 21:17:59 /0711/0711.0814 5130000[\Abstract, \ArticleName, \ShortArticleName, \FirstPageHeading, \Address, \pdfbookmark, \LastPageEnding, \Classification, \ArticleDates, \Author, \Email, \AuthorNameForHeading, \Keywords].
100528 2013-03-11 21:17:58 /0711/0711.0819 2250000[{acknowledgments}, \ShortTitle, \email, \FullConference, \speaker]; 1 missing file[PoS.cls].
100529 2013-03-11 21:17:57 /0711/0711.0770 2535150000[{fmffile}, \arXivid, {fmfgraph}, \fmf, \fmfdot, \nicefrac, \fmfleft, \pdfsetcolor, \fmfright, \accentset, \underaccent].
100530 2013-03-11 21:17:43 /0711/0711.0766 31170000[\parpic].
100531 2013-03-11 21:17:29 /0711/0711.0783 22120000[Align, \xymatrix, \ar]; 9 missing files[xycurve.sty, xymatrix.sty, xyline.sty, xyarrow.sty, xycmtip.sty, xycolor.sty, xyrotate.sty, xyframe.sty, xygraph.sty].
100532 2013-03-11 21:17:09 /0711/0711.0806 61130000[\Issue, \inst, \accepted, \Month, \institute, \Yearsubmission, \Volume, \Yearpublication, \publonline, \Pagespan, \titlerunning, \authorrunning, \received].
100533 2013-03-11 21:17:04 /0711/0711.0811 160000[\address, \textipa, \ninept, \name]; 2 missing files[interspeech2007.sty, tipa.sty].
100534 2013-03-11 21:16:22 /0711/0711.0769 18450000[\subfloat, \unit, \subref].
100535 2013-03-11 21:16:18 /0711/0711.0786 4910000[\arXivid].
100536 2013-03-11 21:16:15 /0711/0711.0784 5160000[\allsectionsfont, \textipa, \htmladdnormallink, \subsectionfont]; 4 missing files[sectsty.sty, xrcs.sty, xy.sty, tipa.sty].
100537 2013-03-11 21:16:11 /0711/0711.0782 090000[\affil, \apj, \aj, \citep, \aap, \citet, \acknowledgements, \plottwo]; 1 missing file[asp2006.sty].
100538 2013-03-11 21:15:56 /0711/0711.0756 15610000[\mathds].
100539 2013-03-11 21:15:45 /0711/0711.0771 1150000[\Issue, \inst, \accepted, \Month, \degr, \institute, \Yearsubmission, \Volume, \Yearpublication, \publonline, \Pagespan, \email, \fnmsep, {acknowledgements}, \received].
100540 2013-03-11 21:15:10 /0711/0711.0764 240000[\inst, \arcsec, \institute, {acknowledgements}]; 1 missing file[mpe_report.cls].
100541 2013-03-11 21:15:08 /0711/0711.0701 9360000[Align, \subjclass, \xymatrix, \ar, {acknowledgements}]; 1 missing file[xy.sty].
100542 2013-03-11 21:14:56 /0711/0711.0738 1810000[{centering}].
100543 2013-03-11 21:14:28 /0711/0711.0758 220000[\normalem]; 1 missing file[marvosym.sty].
100544 2013-03-11 21:14:25 /0711/0711.0755 080000[\psfig, \bodymatter, \text, \keywords]; 1 missing file[ws.sty].
100545 2013-03-11 21:14:24 /0711/0711.0744 1420000[\geometry]; 1 missing file[esint.sty].
100546 2013-03-11 21:14:18 /0711/0711.0705 476390000[{keywords}, \QED, \psfrag, \IEEEmembership, \appendices, {proof}]; 1 missing file[IEEEtran.cls].
100547 2013-03-11 21:14:12 /0711/0711.0728 2010000[\theappendix].
100548 2013-03-11 21:14:09 /0711/0711.0742 0180000[\arcmin, \inst, \accepted, \Month, \publonline, \DOI, \email, \titlerunning, \fnmsep, \authorrunning, \received, \Issue, \Yearsubmission, \institute, \Yearpublication, \Volume, \Pagespan, \acknowledgements].
100549 2013-03-11 21:14:02 /0711/0711.0719 1430000[\vref].
100550 2013-03-11 21:13:48 /0711/0711.0708 2740000[{IEEEkeywords}, \endIEEEproof, \IEEEmembership, {IEEEproof}]; 1 missing file[IEEEtran.cls].
100551 2013-03-11 21:13:28 /0711/0711.0734 1130000[\textbb]; 2 missing files[shadow.sty, version.sty].
100552 2013-03-11 21:13:13 /0711/0711.0724 23290000[\comby, \catchline, {romanlist}, {itemlist}, \refcite, \keywords, \ltimes, {history}]; 1 missing file[ws.sty].
100553 2013-03-11 21:12:50 /0711/0711.0710 6130000[\PACSes, \BY, \SAME, \atque, \shortauthor, \acknowledgments, \PACSit, \TITLE, \IN, \@affiliation].
100554 2013-03-11 21:12:50 /0711/0711.0722 010000[\normalem].
100555 2013-03-11 21:12:49 /0711/0711.0737 610000[\institute]; 1 missing file[blois07.cls].
100556 2013-03-11 21:12:30 /0711/0711.0726 020000[\ack, \ead].
100557 2013-03-11 21:12:28 /0711/0711.0725 1260000[\citep, \citet, \altaffiltext, \acknowledgements, \altaffilmark]; 1 missing file[asp2006.sty].
100558 2013-03-11 21:12:22 /0711/0711.0690 20190000[\AOSvol, \AOStitle, \AOSaffil, \AOSAMS, \AOSno, \SPECFNSYMBOL, \AOSpp, \Line, \AOSMAKETITLE, \AOSReceived, \BACKTONORMALFOOTNOTE, \AOSAbstract, \AOSrrh, \AOSauthor, \AOSlrh, \AOSaddress, \AOSyr, \AOSKeywords, \NONUMBIB].
100559 2013-03-11 21:12:17 /0711/0711.0699 3360000[\includegraphics, \ShortTitle, \email, \FullConference, \acknowledgments, \speaker]; 1 missing file[PoS.cls].
100560 2013-03-11 21:12:14 /0711/0711.0703 150000[{sidewaystable*}].
100561 2013-03-11 21:12:04 /0711/0711.0711 020000[\overrideIEEEmargins, \IEEEoverridecommandlockouts].
100562 2013-03-11 21:12:03 /0711/0711.0674 180230000[\copyrightyear, {lemma}, \amsclass, \Gp, {theorem}, \mathbfdef, \address, \cd, {proposition}, \mathrmdef, \eaddress, \endproof, \thetheorem, \keywords, \ari, \Se, {definition}, {corollary}, \D, \Bi, {proof}].
100563 2013-03-11 21:11:39 /0711/0711.0697 1260000[\ccode, \catchline, \utilde, \pub, \keywords]; 1 missing file[ws.sty].
100564 2013-03-11 21:10:57 /0711/0711.0693 4090000[\ZP, \mr, \PRL, \PL, \br, \NP, \ead, \etal, \PR].
100565 2013-03-11 21:10:51 /0711/0711.0660 7340000[\pgfuseimage, \dsum, \pgfdeclareimage]; 1 missing file[pgf.sty].
100566 2013-03-11 21:10:31 /0711/0711.0620 7440000[\mathds, \FloatBarrier].
100567 2013-03-11 21:10:10 /0711/0711.0666 2250000[\address, \name]; 1 missing file[isspa-spconf.sty].
100568 2013-03-11 21:09:49 /0711/0711.0657 420000[{sidewaystable*}].
100569 2013-03-11 21:09:40 /0711/0711.0591 27720000[\arrowfill@, \ext@arrow].
100570 2013-03-11 21:09:34 /0711/0711.0656 340000[\ShortTitle, \email, \FullConference, \speaker]; 1 missing file[PoS.cls].
100571 2013-03-11 21:09:25 /0711/0711.0646 1340000[\vchcaption, \inst, {vchfigure}, {acknowledgement}].
100572 2013-03-11 21:09:24 /0711/0711.0661 740000[\ShortTitle, \email, \FullConference, \speaker]; 1 missing file[PoS.cls].
100573 2013-03-11 21:09:07 /0711/0711.0635 820000[\mathds]; 1 missing file[xy.sty].
100574 2013-03-11 21:09:02 /0711/0711.0647 010000[\citeauthoryear].
100575 2013-03-11 21:08:49 /0711/0711.0652 4140000[\Issue, \inst, \accepted, \Month, \institute, \Yearsubmission, \Volume, \Yearpublication, \publonline, \Pagespan, \fnmsep, \titlerunning, \authorrunning, \received].
100576 2013-03-11 21:08:40 /0711/0711.0634 19230000[\rEq, Align, \newarrow, \ldTo, \rdTo, \rTo, {diagram}].
100577 2013-03-11 21:08:39 /0711/0711.0654 240000[\instnr, \runningauthor, \runningtitle, \instlist]; 1 missing file[FBSart.cls].
100578 2013-03-11 21:08:36 /0711/0711.0655 150000[\eqref, \email, \epsfig, \citet]; 1 missing file[ws.sty].
100579 2013-03-11 21:07:47 /0711/0711.0629 260000[\ShortTitle, \mathbb, \email, \FullConference, \acknowledgments, \speaker]; 1 missing file[PoS.cls].
100580 2013-03-11 21:07:32 /0711/0711.0599 4610000[\tsum].
100581 2013-03-11 21:07:27 /0711/0711.0587 18180000[\startlocaldefs, \runtitle, \volume, \address, \firstpage, \pubyear, \kwd, \lastpage, \snm, \fnms, {keyword}, \endlocaldefs, {aug}, \issue, \runauthor, \printead, {frontmatter}, \ead]; 1 missing file[imsart.cls].
100582 2013-03-11 21:07:20 /0711/0711.0622 210000[\mathds].
100583 2013-03-11 21:07:20 /0711/0711.0623 530000[\kword, \abst, \inst].
100584 2013-03-11 21:07:05 /0711/0711.0609 5140000[\at, {theorem}, \institute, \qed, \keywords, \journalname, {example}, {definition}, \smartqed, {corollary}, \subclass, {remark}, {proof}, {acknowledgements}]; 1 missing file[my-svjour2.cls].
100585 2013-03-11 21:06:55 /0711/0711.0607 040000[{smaller}].
100586 2013-03-11 21:06:35 /0711/0711.0598 670000[\setitemize].
100587 2013-03-11 21:06:30 /0711/0711.0610 050000[\Chapter]; 1 missing file[multind.sty].
100588 2013-03-11 21:06:20 /0711/0711.0568 7610000[{AMS}].
100589 2013-03-11 21:06:18 /0711/0711.0601 470000[\inst, \titlerunning, \institute, \offprints, \authorrunning, {acknowledgements}, \keywords]; 1 missing file[aav6_nc.cls].
100590 2013-03-11 21:06:11 /0711/0711.0602 0110000[\affil, \mnras, \apj, \citep, \iaucirc, \citet, \apjl, \acknowledgements, \aap]; 2 missing files[asp2006.sty, aas_macros.sty].
100591 2013-03-11 21:05:49 /0711/0711.0588 210000[\fancyplain].
100592 2013-03-11 21:05:22 /0711/0711.0570 1670000[Align, \xymatrix, \undertilde, \ar]; 3 missing files[fixmath.sty, xy.sty, import.sty].
100593 2013-03-11 21:05:07 /0711/0711.0578 210000[\psfrag].
100594 2013-03-11 21:04:55 /0711/0711.0580 010000[\abst].
100595 2013-03-11 21:04:52 /0711/0711.0563 130000[\authorblockN, \authorblockA, \IEEEpeerreviewmaketitle]; 1 missing file[IEEEtran.cls].
100596 2013-03-11 21:04:43 /0711/0711.0558 2860000[\thechapter@ID].
100597 2013-03-11 21:04:41 /0711/0711.0565 0250000[\cf, \paperh, \fonttbl, \vieww, \f, \pard, \paperw, \mac, \colortbl, \blue, \ansicpg, \fswiss, \fs, \viewkind, \margl, \qnatural, \green, \viewh, \cocoartf, \rtf, \red, \margr, \ql, \tx, \fcharset].
100598 2013-03-11 21:04:40 /0711/0711.0566 180000[\includegraphics, \ShortTitle, \email, \FullConference, \speaker]; 1 missing file[PoS.cls].
100599 2013-03-11 21:04:27 /0711/0711.0550 20140000[Align, \xymatrix, \dashline, \ar]; 1 missing file[xy.sty].
100600 2013-03-11 21:04:17 /0711/0711.0555 36460000[\subjclassyear].
<<< >>>

[0] [200] [400] [600] [800] [1000] [1200] [1400] [1600] [1800] [2000] [2200] [2400] [2600] [2800] [3000] [3200] [3400] [3600] [3800] [4000] [4200] [4400] [4600] [4800] [5000] [5200] [5400] [5600] [5800] [6000] [6200] [6400] [6600] [6800] [7000] [7200] [7400] [7600] [7800] [8000] [8200] [8400] [8600] [8800] [9000] [9200] [9400] [9600] [9800] [10000] [10200] [10400] [10600] [10800] [11000] [11200] [11400] [11600] [11800] [12000] [12200] [12400] [12600] [12800] [13000] [13200] [13400] [13600] [13800] [14000] [14200] [14400] [14600] [14800] [15000] [15200] [15400] [15600] [15800] [16000] [16200] [16400] [16600] [16800] [17000] [17200] [17400] [17600] [17800] [18000] [18200] [18400] [18600] [18800] [19000] [19200] [19400] [19600] [19800] [20000] [20200] [20400] [20600] [20800] [21000] [21200] [21400] [21600] [21800] [22000] [22200] [22400] [22600] [22800] [23000] [23200] [23400] [23600] [23800] [24000] [24200] [24400] [24600] [24800] [25000] [25200] [25400] [25600] [25800] [26000] [26200] [26400] [26600] [26800] [27000] [27200] [27400] [27600] [27800] [28000] [28200] [28400] [28600] [28800] [29000] [29200] [29400] [29600] [29800] [30000] [30200] [30400] [30600] [30800] [31000] [31200] [31400] [31600] [31800] [32000] [32200] [32400] [32600] [32800] [33000] [33200] [33400] [33600] [33800] [34000] [34200] [34400] [34600] [34800] [35000] [35200] [35400] [35600] [35800] [36000] [36200] [36400] [36600] [36800] [37000] [37200] [37400] [37600] [37800] [38000] [38200] [38400] [38600] [38800] [39000] [39200] [39400] [39600] [39800] [40000] [40200] [40400] [40600] [40800] [41000] [41200] [41400] [41600] [41800] [42000] [42200] [42400] [42600] [42800] [43000] [43200] [43400] [43600] [43800] [44000] [44200] [44400] [44600] [44800] [45000] [45200] [45400] [45600] [45800] [46000] [46200] [46400] [46600] [46800] [47000] [47200] [47400] [47600] [47800] [48000] [48200] [48400] [48600] [48800] [49000] [49200] [49400] [49600] [49800] [50000] [50200] [50400] [50600] [50800] [51000] [51200] [51400] [51600] [51800] [52000] [52200] [52400] [52600] [52800] [53000] [53200] [53400] [53600] [53800] [54000] [54200] [54400] [54600] [54800] [55000] [55200] [55400] [55600] [55800] [56000] [56200] [56400] [56600] [56800] [57000] [57200] [57400] [57600] [57800] [58000] [58200] [58400] [58600] [58800] [59000] [59200] [59400] [59600] [59800] [60000] [60200] [60400] [60600] [60800] [61000] [61200] [61400] [61600] [61800] [62000] [62200] [62400] [62600] [62800] [63000] [63200] [63400] [63600] [63800] [64000] [64200] [64400] [64600] [64800] [65000] [65200] [65400] [65600] [65800] [66000] [66200] [66400] [66600] [66800] [67000] [67200] [67400] [67600] [67800] [68000] [68200] [68400] [68600] [68800] [69000] [69200] [69400] [69600] [69800] [70000] [70200] [70400] [70600] [70800] [71000] [71200] [71400] [71600] [71800] [72000] [72200] [72400] [72600] [72800] [73000] [73200] [73400] [73600] [73800] [74000] [74200] [74400] [74600] [74800] [75000] [75200] [75400] [75600] [75800] [76000] [76200] [76400] [76600] [76800] [77000] [77200] [77400] [77600] [77800] [78000] [78200] [78400] [78600] [78800] [79000] [79200] [79400] [79600] [79800] [80000] [80200] [80400] [80600] [80800] [81000] [81200] [81400] [81600] [81800] [82000] [82200] [82400] [82600] [82800] [83000] [83200] [83400] [83600] [83800] [84000] [84200] [84400] [84600] [84800] [85000] [85200] [85400] [85600] [85800] [86000] [86200] [86400] [86600] [86800] [87000] [87200] [87400] [87600] [87800] [88000] [88200] [88400] [88600] [88800] [89000] [89200] [89400] [89600] [89800] [90000] [90200] [90400] [90600] [90800] [91000] [91200] [91400] [91600] [91800] [92000] [92200] [92400] [92600] [92800] [93000] [93200] [93400] [93600] [93800] [94000] [94200] [94400] [94600] [94800] [95000] [95200] [95400] [95600] [95800] [96000] [96200] [96400] [96600] [96800] [97000] [97200] [97400] [97600] [97800] [98000] [98200] [98400] [98600] [98800] [99000] [99200] [99400] [99600] [99800] [100000] [100200] [100400] [100600] [100800] [101000] [101200] [101400] [101600] [101800] [102000] [102200] [102400] [102600] [102800] [103000] [103200] [103400] [103600] [103800] [104000] [104200] [104400] [104600] [104800] [105000] [105200] [105400] [105600] [105800] [106000] [106200] [106400] [106600] [106800] [107000] [107200] [107400] [107600] [107800] [108000] [108200] [108400] [108600] [108800] [109000] [109200] [109400] [109600] [109800] [110000] [110200] [110400] [110600] [110800] [111000] [111200] [111400] [111600] [111800] [112000] [112200] [112400] [112600] [112800] [113000] [113200] [113400] [113600] [113800] [114000] [114200] [114400] [114600] [114800] [115000] [115200] [115400] [115600] [115800] [116000] [116200] [116400] [116600] [116800] [117000] [117200] [117400] [117600] [117800] [118000] [118200] [118400] [118600] [118800] [119000] [119200] [119400] [119600] [119800] [120000] [120200] [120400] [120600] [120800] [121000] [121200] [121400] [121600] [121800] [122000] [122200] [122400] [122600] [122800] [123000] [123200] [123400] [123600] [123800] [124000] [124200] [124400] [124600] [124800] [125000] [125200] [125400] [125600] [125800] [126000] [126200] [126400] [126600] [126800] [127000] [127200] [127400] [127600] [127800] [128000] [128200] [128400] [128600] [128800] [129000] [129200] [129400] [129600] [129800] [130000] [130200] [130400] [130600] [130800] [131000] [131200] [131400] [131600] [131800] [132000] [132200] [132400] [132600] [132800] [133000] [133200] [133400] [133600] [133800] [134000] [134200] [134400] [134600] [134800] [135000] [135200] [135400] [135600] [135800] [136000] [136200] [136400] [136600] [136800] [137000] [137200] [137400] [137600] [137800] [138000] [138200] [138400] [138600] [138800] [139000] [139200] [139400] [139600] [139800] [140000] [140200] [140400] [140600] [140800] [141000] [141200] [141400] [141600] [141800] [142000] [142200] [142400] [142600] [142800] [143000] [143200] [143400] [143600] [143800] [144000] [144200] [144400] [144600] [144800] [145000] [145200] [145400] [145600] [145800] [146000] [146200] [146400] [146600] [146800] [147000] [147200] [147400] [147600] [147800] [148000] [148200] [148400] [148600] [148800] [149000] [149200] [149400] [149600] [149800] [150000] [150200] [150400] [150600] [150800] [151000] [151200] [151400] [151600] [151800] [152000] [152200] [152400] [152600] [152800] [153000] [153200] [153400] [153600] [153800] [154000] [154200] [154400] [154600] [154800] [155000] [155200] [155400] [155600] [155800] [156000] [156200] [156400] [156600] [156800] [157000] [157200] [157400] [157600] [157800] [158000] [158200] [158400] [158600] [158800] [159000] [159200] [159400] [159600] [159800] [160000] [160200] [160400] [160600] [160800] [161000] [161200] [161400] [161600] [161800] [162000] [162200] [162400] [162600] [162800] [163000] [163200] [163400] [163600] [163800] [164000] [164200] [164400] [164600]
 
  The service has been written by
Heinrich Stamerjohanns